Time;durP1;ratioP1;P1;durP2;ratioP2;P2;SDS_P1;SDS_P2;PMS_P1;PMS_P2;Temp;Humidity;BMP_temperature;BMP_pressure;BME280_temperature;BME280_humidity;BME280_pressure;Samples;Min_cycle;Max_cycle;Signal;HPM_P1;HPM_P2
2022/02/19 00:01:36;;;;;;;12.07;5.73;;;;;;;9.88;66.01;96909.77;2153652;83;20999;-82
2022/02/19 00:04:37;;;;;;;15.00;5.83;;;;;;;9.95;65.00;96902.27;2153796;83;21280;-83
2022/02/19 00:07:37;;;;;;;10.10;5.43;;;;;;;10.02;65.92;96914.31;2153880;83;20962;-83
2022/02/19 00:10:38;;;;;;;13.27;6.33;;;;;;;10.08;65.38;96931.59;2154905;83;21389;-81
2022/02/19 00:13:38;;;;;;;12.63;6.27;;;;;;;10.12;65.10;96941.95;2154317;83;21334;-82
2022/02/19 00:16:39;;;;;;;11.13;5.90;;;;;;;10.14;64.99;96949.30;2154029;83;20936;-82
2022/02/19 00:19:39;;;;;;;20.50;6.33;;;;;;;10.17;64.43;96966.20;2154760;83;20935;-82
2022/02/19 00:22:40;;;;;;;12.57;6.10;;;;;;;10.23;64.99;96982.66;2154675;83;20988;-82
2022/02/19 00:25:40;;;;;;;16.03;5.60;;;;;;;10.24;65.44;97000.88;2154344;83;20931;-82
2022/02/19 00:28:41;;;;;;;10.90;4.97;;;;;;;10.29;65.94;97007.33;2154095;83;21322;-82
2022/02/19 00:31:41;;;;;;;12.40;5.37;;;;;;;10.30;66.52;97029.47;2153560;83;21327;-82
2022/02/19 00:34:42;;;;;;;16.33;5.83;;;;;;;10.25;67.40;97084.75;2153512;83;21025;-84
2022/02/19 00:37:42;;;;;;;8.83;4.13;;;;;;;10.09;72.09;97117.10;2154291;83;20982;-84
2022/02/19 00:40:43;;;;;;;5.93;2.30;;;;;;;9.65;74.59;97117.23;2154229;82;20936;-83
2022/02/19 00:43:45;;;;;;;4.07;2.17;;;;;;;9.18;74.72;97091.70;2137764;83;21002;-82
2022/02/19 00:49:48;;;;;;;3.17;1.73;;;;;;;8.47;76.40;97151.27;2137884;83;20908;-82
2022/02/19 00:52:49;;;;;;;4.60;1.90;;;;;;;8.23;78.81;97149.66;2153554;81;21042;-82
2022/02/19 00:55:49;;;;;;;4.00;1.80;;;;;;;8.06;77.94;97150.19;2151923;83;21029;-83
2022/02/19 00:58:50;;;;;;;5.67;1.60;;;;;;;7.90;78.46;97129.91;2153247;83;20948;-84
2022/02/19 01:01:50;;;;;;;7.17;1.97;;;;;;;7.81;78.58;97118.70;2153856;83;20991;-84
2022/02/19 01:04:51;;;;;;;7.87;2.00;;;;;;;7.76;78.90;97110.03;2154333;83;21314;-84
2022/02/19 01:07:51;;;;;;;5.90;2.13;;;;;;;7.74;78.93;97107.88;2154301;83;20980;-83
2022/02/19 01:10:53;;;;;;;3.07;1.97;;;;;;;7.75;78.75;97100.52;2153812;83;21115;-83
2022/02/19 01:13:53;;;;;;;10.93;2.60;;;;;;;7.78;78.77;97079.29;2153608;83;21058;-83
2022/02/19 01:16:54;;;;;;;2.87;2.00;;;;;;;7.79;79.62;97091.84;2153243;83;20940;-82
2022/02/19 01:19:54;;;;;;;13.10;3.37;;;;;;;7.79;80.01;97094.44;2153703;83;20967;-83
2022/02/19 01:22:55;;;;;;;4.07;3.27;;;;;;;7.75;80.16;97103.98;2153404;83;21113;-83
2022/02/19 01:25:55;;;;;;;6.07;3.30;;;;;;;7.75;79.66;97115.67;2153481;83;20931;-84
2022/02/19 01:28:56;;;;;;;10.13;3.67;;;;;;;7.75;79.01;97112.20;2154314;83;20928;-83
2022/02/19 01:31:56;;;;;;;9.17;4.93;;;;;;;7.77;79.32;97123.45;2154553;83;20936;-83
2022/02/19 01:34:58;;;;;;;7.87;4.20;;;;;;;7.79;79.29;97130.80;2154025;83;21026;-83
2022/02/19 01:37:59;;;;;;;9.17;4.13;;;;;;;7.80;79.67;97157.20;2154388;83;20912;-84
2022/02/19 01:40:59;;;;;;;8.13;3.70;;;;;;;7.84;79.78;97168.05;2154546;83;20928;-84
2022/02/19 01:44:00;;;;;;;6.67;3.43;;;;;;;7.84;78.99;97164.15;2154311;83;20987;-83
2022/02/19 01:47:00;;;;;;;4.90;3.20;;;;;;;7.88;76.66;97158.07;2155195;83;20935;-84
2022/02/19 01:50:01;;;;;;;5.60;2.43;;;;;;;7.90;72.98;97158.92;2154406;83;20904;-84
2022/02/19 01:53:01;;;;;;;9.07;2.57;;;;;;;7.92;70.54;97148.95;2155013;81;21354;-83
2022/02/19 01:56:02;;;;;;;5.57;2.40;;;;;;;7.92;69.16;97170.17;2154402;83;21022;-82
2022/02/19 01:59:02;;;;;;;5.53;2.23;;;;;;;7.87;68.27;97175.39;2154315;83;20990;-83
2022/02/19 02:02:03;;;;;;;4.87;1.80;;;;;;;7.80;66.93;97174.09;2153905;83;21322;-83
2022/02/19 02:05:04;;;;;;;3.83;2.00;;;;;;;7.74;64.85;97178.88;2153206;83;21089;-81
2022/02/19 02:08:08;;;;;;;5.20;2.00;;;;;;;7.75;62.15;97186.23;2153432;83;20915;-83
2022/02/19 02:11:08;;;;;;;4.57;1.97;;;;;;;7.77;63.01;97185.35;2155179;83;20975;-82
2022/02/19 02:14:08;;;;;;;2.83;1.53;;;;;;;7.75;60.31;97182.33;2154683;83;20931;-82
2022/02/19 02:17:09;;;;;;;3.90;1.57;;;;;;;7.78;60.30;97201.80;2154802;83;20972;-81
2022/02/19 02:20:09;;;;;;;6.90;1.57;;;;;;;7.82;61.07;97214.80;2154806;83;20924;-81
2022/02/19 02:23:10;;;;;;;4.13;1.67;;;;;;;7.85;58.15;97210.03;2154494;83;21385;-81
2022/02/19 02:26:10;;;;;;;4.50;1.30;;;;;;;7.88;58.40;97216.52;2154581;83;20964;-81
2022/02/19 02:29:12;;;;;;;3.33;1.70;;;;;;;7.93;56.87;97239.45;2154581;83;20996;-81
2022/02/19 02:32:12;;;;;;;1.60;1.23;;;;;;;7.93;56.51;97248.11;2154354;83;20967;-83
2022/02/19 02:35:14;;;;;;;3.27;1.60;;;;;;;7.93;56.51;97248.11;2154436;83;21003;-82
2022/02/19 02:38:15;;;;;;;2.87;1.30;;;;;;;7.97;57.40;97256.33;2154222;83;21012;-82
2022/02/19 02:41:15;;;;;;;4.10;1.73;;;;;;;7.99;57.97;97251.98;2153900;83;21011;-82
2022/02/19 02:44:16;;;;;;;2.83;1.40;;;;;;;7.98;56.41;97250.26;2154085;83;20951;-82
2022/02/19 02:47:17;;;;;;;4.70;1.60;;;;;;;8.01;54.85;97257.17;2153685;83;21014;-82
2022/02/19 02:50:17;;;;;;;2.77;1.60;;;;;;;8.04;55.80;97261.50;2153615;83;20951;-83
2022/02/19 02:53:18;;;;;;;4.77;1.70;;;;;;;8.00;54.08;97268.44;2163571;81;20994;-82
2022/02/19 02:56:18;;;;;;;7.20;2.33;;;;;;;7.98;54.91;97270.18;2177988;82;20941;-82
2022/02/19 02:59:19;;;;;;;1.83;1.27;;;;;;;7.95;53.51;97276.69;2178265;82;20954;-82
2022/02/19 03:02:19;;;;;;;5.40;1.40;;;;;;;7.90;55.51;97288.39;2178685;82;20954;-83
2022/02/19 03:05:21;;;;;;;10.33;1.83;;;;;;;7.81;53.79;97288.84;2178150;82;20990;-83
2022/02/19 03:08:21;;;;;;;5.07;1.33;;;;;;;7.73;53.29;97289.26;2178416;82;21342;-84
2022/02/19 03:11:22;;;;;;;13.87;1.63;;;;;;;7.63;54.30;97281.92;2178107;82;20954;-83
2022/02/19 03:14:22;;;;;;;7.70;1.60;;;;;;;7.54;55.07;97289.72;2177874;82;20958;-83
2022/02/19 03:17:23;;;;;;;12.87;2.23;;;;;;;7.45;54.91;97297.08;2177244;82;20986;-83
2022/02/19 03:20:23;;;;;;;5.70;1.40;;;;;;;7.42;54.35;97301.41;2177129;82;21444;-82
2022/02/19 03:23:24;;;;;;;5.70;1.03;;;;;;;7.48;52.95;97312.66;2177948;82;20959;-83
2022/02/19 03:26:24;;;;;;;3.73;1.30;;;;;;;7.51;52.37;97306.59;2178163;82;20911;-83
2022/02/19 03:29:25;;;;;;;4.40;1.57;;;;;;;7.51;52.48;97299.67;2178258;82;20959;-83
2022/02/19 03:32:25;;;;;;;9.23;2.00;;;;;;;7.49;53.58;97301.41;2178389;82;20953;-83
2022/02/19 03:35:26;;;;;;;6.37;1.77;;;;;;;7.48;53.55;97304.87;2178165;82;20959;-82
2022/02/19 03:38:26;;;;;;;10.23;2.00;;;;;;;7.49;54.18;97311.80;2177314;82;21010;-83
2022/02/19 03:41:27;;;;;;;6.30;1.87;;;;;;;7.51;53.71;97319.58;2177490;82;21013;-83
2022/02/19 03:44:27;;;;;;;4.23;1.20;;;;;;;7.52;54.10;97322.17;2178231;82;20963;-84
2022/02/19 03:47:28;;;;;;;9.50;1.50;;;;;;;7.51;53.88;97330.83;2178480;82;21301;-82
2022/02/19 03:50:28;;;;;;;5.67;1.40;;;;;;;7.49;54.37;97348.57;2177938;82;21290;-80
2022/02/19 03:53:29;;;;;;;6.87;1.47;;;;;;;7.43;54.94;97354.63;2169715;81;21426;-80
2022/02/19 03:56:29;;;;;;;9.70;1.70;;;;;;;7.39;55.19;97359.39;2154158;83;20931;-81
2022/02/19 03:59:30;;;;;;;11.07;1.30;;;;;;;7.35;54.75;97357.22;2154514;83;20928;-83
2022/02/19 04:02:31;;;;;;;2.50;1.30;;;;;;;7.33;55.09;97364.58;2154872;83;20995;-82
2022/02/19 04:05:31;;;;;;;5.67;1.63;;;;;;;7.32;54.82;97363.70;2154588;83;20995;-83
2022/02/19 04:08:32;;;;;;;3.60;1.47;;;;;;;7.38;53.48;97368.04;2154509;83;20986;-83
2022/02/19 04:11:32;;;;;;;7.47;1.00;;;;;;;7.38;53.96;97375.83;2152995;83;20995;-82
2022/02/19 04:14:33;;;;;;;2.13;0.90;;;;;;;7.33;53.46;97363.28;2153444;83;20963;-81
2022/02/19 04:17:34;;;;;;;2.37;1.30;;;;;;;7.27;53.53;97378.41;2153777;83;20955;-81
2022/02/19 04:20:34;;;;;;;3.27;1.20;;;;;;;7.25;53.39;97354.62;2153666;83;20983;-81
2022/02/19 04:23:35;;;;;;;5.57;1.20;;;;;;;7.26;53.95;97369.33;2154095;83;21043;-81
2022/02/19 04:26:36;;;;;;;11.07;1.57;;;;;;;7.32;53.71;97371.92;2154201;83;21326;-82
2022/02/19 04:32:39;;;;;;;21.40;12.63;;;;;;;7.24;54.11;97373.22;2137001;83;21035;-83
2022/02/19 04:35:40;;;;;;;5.80;1.60;;;;;;;7.19;54.20;97379.27;2090109;85;21444;-83
2022/02/19 04:38:41;;;;;;;6.63;1.10;;;;;;;7.15;53.06;97382.72;2091678;84;20974;-82
2022/02/19 04:41:42;;;;;;;3.53;1.23;;;;;;;7.11;52.95;97388.77;2092549;84;21002;-83
2022/02/19 04:44:42;;;;;;;3.10;1.27;;;;;;;7.01;52.72;97380.95;2091716;84;21073;-81
2022/02/19 04:47:43;;;;;;;3.67;1.30;;;;;;;6.97;52.33;97380.52;2091894;84;21010;-81
2022/02/19 04:50:43;;;;;;;4.33;1.40;;;;;;;6.91;52.84;97393.86;2091192;84;20982;-83
2022/02/19 04:53:45;;;;;;;5.60;1.40;;;;;;;6.86;52.62;97402.06;2096269;84;21025;-82
2022/02/19 04:56:46;;;;;;;3.07;1.23;;;;;;;6.82;51.99;97400.31;2128309;84;21380;-83
2022/02/19 04:59:46;;;;;;;9.80;1.53;;;;;;;6.77;52.00;97403.33;2127744;84;21009;-83
2022/02/19 05:02:47;;;;;;;6.47;1.40;;;;;;;6.74;51.57;97409.80;2128280;84;21060;-83
2022/02/19 05:05:47;;;;;;;2.57;1.20;;;;;;;6.69;52.67;97400.27;2128421;84;21056;-83
2022/02/19 05:08:48;;;;;;;3.23;1.20;;;;;;;6.65;52.49;97404.14;2128507;84;20946;-81
2022/02/19 05:11:48;;;;;;;7.10;1.40;;;;;;;6.58;53.16;97403.68;2129580;84;20997;-82
2022/02/19 05:14:49;;;;;;;3.53;1.57;;;;;;;6.55;52.29;97395.89;2129628;84;20942;-80
2022/02/19 05:17:49;;;;;;;6.73;1.77;;;;;;;6.59;52.66;97401.09;2129107;84;20973;-83
2022/02/19 05:23:52;;;;;;;5.10;1.70;;;;;;;6.54;52.81;97412.30;2109487;84;21061;-81
2022/02/19 05:26:53;;;;;;;4.37;1.50;;;;;;;6.49;52.48;97428.27;2127549;84;21024;-82
2022/02/19 05:29:53;;;;;;;8.20;2.10;;;;;;;6.44;52.29;97428.67;2127433;84;21005;-82
2022/02/19 05:32:54;;;;;;;6.63;1.57;;;;;;;6.40;52.52;97431.67;2127827;84;20981;-82
2022/02/19 05:35:54;;;;;;;9.20;1.40;;;;;;;6.37;51.54;97442.02;2127612;84;21032;-83
2022/02/19 05:38:56;;;;;;;4.77;2.60;;;;;;;6.34;51.62;97449.35;2129470;84;21349;-83
2022/02/19 05:44:59;;;;;;;5.97;2.10;;;;;;;6.34;52.44;97453.67;2112057;84;21038;-81
2022/02/19 05:47:59;;;;;;;5.83;1.30;;;;;;;6.36;51.76;97450.23;2129412;84;21005;-80
2022/02/19 05:50:59;;;;;;;5.50;2.10;;;;;;;6.39;51.95;97452.84;2128066;84;21420;-80
2022/02/19 05:54:00;;;;;;;5.87;1.90;;;;;;;6.39;51.91;97460.61;2115567;83;21381;-81
2022/02/19 05:57:00;;;;;;;8.77;1.57;;;;;;;6.43;51.60;97465.81;2086553;84;21342;-82
2022/02/19 06:00:01;;;;;;;8.47;1.93;;;;;;;6.44;50.43;97477.92;2086483;84;21013;-82
2022/02/19 06:03:01;;;;;;;17.63;10.83;;;;;;;6.41;50.54;97476.60;2086853;84;20999;-82
2022/02/19 06:06:02;;;;;;;3.57;1.53;;;;;;;6.37;49.43;97480.47;2148376;83;20984;-81
2022/02/19 06:09:03;;;;;;;12.50;1.63;;;;;;;6.38;49.18;97491.70;2148325;83;21095;-77
2022/02/19 06:12:03;;;;;;;13.17;1.93;;;;;;;6.36;49.03;97477.44;2148739;83;21401;-81
2022/02/19 06:15:04;;;;;;;7.90;1.80;;;;;;;6.33;49.20;97494.27;2147913;83;21343;-81
2022/02/19 06:18:04;;;;;;;5.63;2.00;;;;;;;6.37;56.98;97499.91;2146806;83;20972;-80
2022/02/19 06:21:04;;;;;;;7.30;1.60;;;;;;;7.16;47.46;97499.92;2146353;83;21050;-80
2022/02/19 06:24:05;;;;;;;6.23;2.20;;;;;;;6.91;45.93;97492.00;2145462;83;21010;-80
2022/02/19 06:27:05;;;;;;;7.63;2.20;;;;;;;6.74;47.25;97501.42;2145437;83;20967;-80
2022/02/19 06:30:06;;;;;;;8.07;2.07;;;;;;;6.64;47.19;97496.62;2085573;84;20982;-80
2022/02/19 06:33:07;;;;;;;7.63;2.03;;;;;;;6.59;47.59;97506.09;2085584;84;20943;-77
2022/02/19 06:36:07;;;;;;;14.57;2.70;;;;;;;6.56;47.40;97507.80;2085430;84;21042;-81
2022/02/19 06:39:08;;;;;;;12.63;2.20;;;;;;;6.57;48.04;97506.95;2085927;84;21360;-81
2022/02/19 06:42:09;;;;;;;7.47;1.70;;;;;;;6.58;46.88;97516.46;2085818;84;21069;-82
2022/02/19 06:45:10;;;;;;;6.40;1.60;;;;;;;6.58;46.92;97510.84;2086288;84;21383;-82
2022/02/19 06:51:13;;;;;;;7.63;1.70;;;;;;;6.67;47.82;97536.83;2079058;85;21058;-83
2022/02/19 06:54:13;;;;;;;12.37;2.00;;;;;;;6.73;46.13;97541.19;2086112;84;21029;-81
2022/02/19 06:57:14;;;;;;;4.50;1.37;;;;;;;6.81;45.74;97531.73;2084872;84;20966;-83
2022/02/19 07:00:14;;;;;;;6.17;1.60;;;;;;;6.85;45.49;97541.27;2084565;84;20982;-83
2022/02/19 07:06:17;;;;;;;9.63;2.07;;;;;;;6.97;45.53;97538.77;2077503;85;21073;-85
2022/02/19 07:09:18;;;;;;;17.80;2.27;;;;;;;7.02;45.07;97550.46;2085731;84;21236;-80
2022/02/19 07:12:18;;;;;;;6.07;2.27;;;;;;;7.07;45.26;97550.48;2085706;84;21079;-81
2022/02/19 07:15:20;;;;;;;8.40;1.87;;;;;;;7.13;45.14;97557.88;2087344;84;21023;-82
2022/02/19 07:18:21;;;;;;;4.33;1.70;;;;;;;7.19;44.22;97593.36;2087253;84;20989;-81
2022/02/19 07:21:21;;;;;;;7.07;2.17;;;;;;;7.22;43.32;97579.11;2086965;84;20915;-81
2022/02/19 07:24:22;;;;;;;5.13;1.70;;;;;;;7.29;42.27;97557.51;2085724;84;21395;-81
2022/02/19 07:27:22;;;;;;;5.77;2.57;;;;;;;7.38;42.79;97584.80;2085145;84;20986;-81
2022/02/19 07:30:23;;;;;;;7.63;3.00;;;;;;;7.45;42.68;97599.55;2085816;84;21469;-82
2022/02/19 07:33:23;;;;;;;12.00;3.27;;;;;;;7.48;41.94;97582.68;2085662;84;20978;-80
2022/02/19 07:36:24;;;;;;;6.60;2.20;;;;;;;7.53;42.08;97600.44;2085631;84;21029;-82
2022/02/19 07:39:24;;;;;;;5.93;1.80;;;;;;;7.59;42.97;97614.75;2086635;84;20992;-82
2022/02/19 07:42:25;;;;;;;5.77;1.93;;;;;;;7.62;41.09;97604.80;2087168;84;20991;-81
2022/02/19 07:45:25;;;;;;;8.53;2.40;;;;;;;7.58;42.02;97614.31;2086423;84;20931;-80
2022/02/19 07:48:26;;;;;;;5.37;2.03;;;;;;;7.65;42.15;97627.76;2084581;84;20970;-81
2022/02/19 07:58:19;;;;;;;8.80;2.07;;;;;;;7.91;40.68;97644.77;2085861;85;21033;-82
2022/02/19 08:01:20;;;;;;;5.30;2.17;;;;;;;7.97;40.75;97635.69;2086555;85;21003;-83
2022/02/19 08:04:21;;;;;;;10.13;3.20;;;;;;;8.07;41.31;97625.31;2087027;84;21405;-82
2022/02/19 08:07:21;;;;;;;7.87;2.77;;;;;;;8.06;40.76;97653.03;2086502;84;21011;-82
2022/02/19 08:10:22;;;;;;;10.83;2.33;;;;;;;8.07;40.19;97685.96;2086929;84;20970;-82
2022/02/19 08:13:25;;;;;;;10.57;3.10;;;;;;;8.09;38.85;97653.05;2085816;84;20974;-81
2022/02/19 08:16:26;;;;;;;8.23;2.40;;;;;;;8.17;39.72;97660.43;2086384;84;21011;-82
2022/02/19 08:19:26;;;;;;;6.53;2.47;;;;;;;8.27;38.82;97659.59;2086541;84;22007;-81
2022/02/19 08:22:27;;;;;;;6.93;2.30;;;;;;;8.39;38.74;97678.70;2086889;84;20975;-82
2022/02/19 08:25:27;;;;;;;6.67;2.23;;;;;;;8.47;37.90;97688.69;2087629;84;20927;-82
2022/02/19 08:28:30;;;;;;;9.63;2.43;;;;;;;8.57;38.49;97661.83;2079470;85;21010;-84
2022/02/19 08:31:30;;;;;;;8.90;2.30;;;;;;;8.53;38.80;97669.19;2087644;84;21382;-81
2022/02/19 08:34:31;;;;;;;6.00;2.10;;;;;;;8.55;38.15;97710.38;2087532;84;21018;-82
2022/02/19 08:37:31;;;;;;;7.27;2.00;;;;;;;8.67;38.31;97690.91;2087027;84;20955;-82
2022/02/19 08:40:32;;;;;;;5.00;1.60;;;;;;;8.64;37.66;97714.30;2087137;84;21009;-83
2022/02/19 08:43:32;;;;;;;6.80;2.30;;;;;;;8.67;38.29;97692.62;2086754;84;21049;-82
2022/02/19 08:46:33;;;;;;;11.43;2.57;;;;;;;8.67;38.48;97706.52;2087540;84;21021;-82
2022/02/19 08:49:33;;;;;;;8.17;2.80;;;;;;;8.79;39.69;97707.84;2087448;84;20978;-82
2022/02/19 08:52:34;;;;;;;6.53;2.10;;;;;;;8.91;38.29;97715.65;2087526;84;21020;-82
2022/02/19 08:55:34;;;;;;;5.70;2.40;;;;;;;8.73;37.60;97725.17;2086128;82;21404;-82
2022/02/19 08:58:35;;;;;;;9.83;2.60;;;;;;;8.64;38.62;97715.59;2085411;84;20954;-81
2022/02/19 09:01:35;;;;;;;10.73;2.53;;;;;;;8.55;37.76;97732.05;2085291;84;20959;-81
2022/02/19 09:04:35;;;;;;;7.37;2.57;;;;;;;8.51;38.17;97744.62;2084732;84;21076;-81
2022/02/19 09:07:36;;;;;;;5.57;1.80;;;;;;;8.50;38.81;97748.52;2084704;84;21010;-83
2022/02/19 09:10:36;;;;;;;7.77;2.67;;;;;;;8.46;37.92;97755.44;2084982;84;20984;-80
2022/02/19 09:13:37;;;;;;;11.30;2.87;;;;;;;8.47;38.44;97747.20;2085199;84;21022;-81
2022/02/19 09:16:38;;;;;;;9.13;3.17;;;;;;;8.49;38.26;97766.28;2085101;84;21373;-81
2022/02/19 09:19:38;;;;;;;7.77;3.20;;;;;;;8.54;38.54;97765.43;2085845;84;21021;-83
2022/02/19 09:22:38;;;;;;;9.77;2.63;;;;;;;8.53;38.53;97740.28;2086256;84;20994;-82
2022/02/19 09:25:39;;;;;;;12.13;2.90;;;;;;;8.50;38.97;97787.52;2086763;84;20990;-82
2022/02/19 09:28:39;;;;;;;10.03;3.10;;;;;;;8.49;38.71;97777.98;2086416;84;20990;-81
2022/02/19 09:31:41;;;;;;;10.00;2.80;;;;;;;8.52;38.01;97812.67;2086849;84;20986;-81
2022/02/19 09:34:41;;;;;;;11.17;3.97;;;;;;;8.49;38.21;97807.89;2086542;84;21068;-81
2022/02/19 09:37:42;;;;;;;11.83;5.10;;;;;;;8.50;38.27;97802.70;2086966;84;20983;-82
2022/02/19 09:40:43;;;;;;;8.90;3.80;;;;;;;8.53;37.89;97820.05;2085930;84;21421;-82
2022/02/19 09:43:43;;;;;;;7.63;2.70;;;;;;;8.54;38.22;97817.88;2084379;84;21420;-82
2022/02/19 09:46:44;;;;;;;7.97;2.80;;;;;;;8.57;38.35;97823.09;2084803;84;20986;-81
2022/02/19 09:49:44;;;;;;;9.10;2.83;;;;;;;8.50;39.07;97820.03;2085637;84;20943;-83
2022/02/19 09:52:45;;;;;;;6.60;2.50;;;;;;;8.53;39.55;97852.13;2085764;84;21002;-83
2022/02/19 09:55:45;;;;;;;18.07;3.47;;;;;;;8.54;38.79;97853.86;2085529;84;21093;-82
2022/02/19 09:58:47;;;;;;;14.07;4.10;;;;;;;8.63;39.31;97856.94;2085562;84;21021;-83
2022/02/19 10:01:47;;;;;;;7.40;3.03;;;;;;;8.65;38.46;97859.11;2086152;84;21369;-80
2022/02/19 10:04:48;;;;;;;9.97;4.27;;;;;;;8.69;37.97;97868.69;2085375;84;21061;-82
2022/02/19 10:07:48;;;;;;;8.27;3.33;;;;;;;8.75;38.42;97888.66;2085783;84;20978;-80
2022/02/19 10:10:49;;;;;;;5.93;2.17;;;;;;;8.71;38.73;97863.06;2085195;84;21429;-81
2022/02/19 10:13:49;;;;;;;6.33;3.10;;;;;;;8.65;38.31;97882.52;2085358;84;21424;-81
2022/02/19 10:16:50;;;;;;;8.27;2.63;;;;;;;8.81;38.53;97885.65;2085872;84;21033;-80
2022/02/19 10:19:50;;;;;;;6.60;2.30;;;;;;;8.85;37.84;97909.52;2087075;84;20986;-81
2022/02/19 10:22:52;;;;;;;8.83;1.90;;;;;;;8.79;38.51;97895.19;2086360;84;21018;-80
2022/02/19 10:25:52;;;;;;;4.97;2.27;;;;;;;8.59;37.81;97892.47;2086061;84;20963;-81
2022/02/19 10:28:53;;;;;;;8.13;2.60;;;;;;;8.56;39.08;97892.45;2085437;84;21049;-81
2022/02/19 10:31:53;;;;;;;440.30;33.63;;;;;;;8.70;38.57;97886.47;2085619;84;21006;-84
2022/02/19 10:34:54;;;;;;;54.43;5.80;;;;;;;9.56;45.62;97904.06;2145821;82;21030;-84
2022/02/19 10:37:55;;;;;;;5.80;2.37;;;;;;;10.32;38.82;97900.13;2145833;83;21418;-81
2022/02/19 10:40:57;;;;;;;5.13;2.47;;;;;;;10.22;36.65;97895.80;2077034;85;21014;-80
2022/02/19 10:43:58;;;;;;;6.80;2.60;;;;;;;9.88;37.50;97918.41;2084838;84;21061;-81
2022/02/19 10:46:58;;;;;;;11.90;2.40;;;;;;;9.68;37.10;97929.27;2084132;84;21017;-81
2022/02/19 10:49:58;;;;;;;6.07;2.60;;;;;;;9.61;37.81;97941.85;2084078;84;20990;-82
2022/02/19 10:52:59;;;;;;;6.90;3.00;;;;;;;9.56;37.81;97933.59;2083889;84;20974;-81
2022/02/19 10:55:59;;;;;;;7.83;2.60;;;;;;;9.65;37.48;97942.29;2083953;84;21030;-81
2022/02/19 10:59:00;;;;;;;6.87;2.90;;;;;;;9.41;37.71;97945.69;2083552;84;20983;-80
2022/02/19 11:02:00;;;;;;;6.57;3.00;;;;;;;9.42;38.57;97953.51;2083809;84;21096;-80
2022/02/19 11:05:01;;;;;;;5.43;2.60;;;;;;;9.31;38.20;97947.84;2083951;84;21002;-80
2022/02/19 11:08:01;;;;;;;7.43;3.37;;;;;;;9.52;38.12;97960.48;2085600;84;21006;-80
2022/02/19 11:11:02;;;;;;;10.30;3.40;;;;;;;9.49;38.11;97964.38;2086816;84;21004;-81
2022/02/19 11:14:02;;;;;;;11.37;3.77;;;;;;;9.33;37.90;97962.60;2085860;84;20998;-81
2022/02/19 11:17:03;;;;;;;8.00;4.13;;;;;;;9.24;38.22;97971.26;2084985;84;21420;-79
2022/02/19 11:20:03;;;;;;;7.97;3.20;;;;;;;9.25;38.44;97978.20;2085394;84;20990;-81
2022/02/19 11:23:04;;;;;;;10.00;4.23;;;;;;;9.39;38.18;97997.78;2085346;84;21018;-79
2022/02/19 11:26:04;;;;;;;7.80;3.60;;;;;;;9.34;37.94;97982.58;2085680;84;20997;-80
2022/02/19 11:29:05;;;;;;;9.87;3.40;;;;;;;9.32;37.75;97994.72;2085183;84;21043;-81
2022/02/19 11:32:05;;;;;;;7.73;3.20;;;;;;;9.17;37.83;98005.95;2086626;84;20967;-79
2022/02/19 11:35:06;;;;;;;6.13;2.60;;;;;;;9.03;38.53;98005.45;2084874;84;21013;-79
2022/02/19 11:38:06;;;;;;;4.97;1.93;;;;;;;8.91;38.25;98018.85;2086100;84;20967;-80
2022/02/19 11:41:07;;;;;;;4.97;2.30;;;;;;;8.81;37.80;98012.28;2086467;84;21030;-81
2022/02/19 11:44:07;;;;;;;7.13;3.60;;;;;;;8.74;38.33;98021.79;2085486;84;21048;-80
2022/02/19 11:47:08;;;;;;;7.67;2.03;;;;;;;8.72;38.59;98044.33;2084658;84;21042;-80
2022/02/19 11:50:08;;;;;;;5.20;2.60;;;;;;;8.47;38.32;98042.39;2084420;84;21002;-81
2022/02/19 11:53:09;;;;;;;6.67;2.87;;;;;;;8.35;39.56;98040.56;2084630;84;21284;-80
2022/02/19 11:56:14;;;;;;;7.57;3.37;;;;;;;8.34;39.55;98050.95;2084794;84;21037;-80
2022/02/19 11:59:18;;;;;;;9.80;4.57;;;;;;;8.34;39.82;98050.95;2085290;84;20985;-80
2022/02/19 12:02:18;;;;;;;7.83;3.53;;;;;;;8.37;39.56;98052.28;2147378;82;21038;-80
2022/02/19 12:05:19;;;;;;;8.73;3.00;;;;;;;8.45;40.26;98054.52;2146066;83;21007;-81
2022/02/19 12:08:21;;;;;;;6.07;2.63;;;;;;;8.48;39.64;98061.03;2086899;84;21428;-81
2022/02/19 12:11:22;;;;;;;7.03;3.00;;;;;;;8.34;39.38;98066.55;2085350;84;21001;-79
2022/02/19 12:14:22;;;;;;;6.20;3.17;;;;;;;8.35;39.42;98073.50;2086065;84;20963;-79
2022/02/19 12:17:23;;;;;;;4.93;2.53;;;;;;;8.42;39.65;98081.36;2086270;84;21025;-79
2022/02/19 12:20:23;;;;;;;8.83;2.80;;;;;;;8.39;39.40;98090.88;2085857;84;20987;-79
2022/02/19 12:23:24;;;;;;;8.73;3.37;;;;;;;8.29;39.25;98097.26;2084901;84;21085;-80
2022/02/19 12:26:24;;;;;;;6.37;2.77;;;;;;;8.19;39.17;98104.53;2085214;84;21345;-79
2022/02/19 12:29:25;;;;;;;6.03;3.67;;;;;;;8.11;39.81;98095.79;2085363;84;20974;-78
2022/02/19 12:32:25;;;;;;;7.33;4.70;;;;;;;8.05;39.60;98097.03;2085260;84;21049;-79
2022/02/19 12:35:26;;;;;;;8.30;5.23;;;;;;;8.07;40.20;98118.71;2085362;84;21065;-79
2022/02/19 12:38:26;;;;;;;6.77;2.77;;;;;;;8.10;40.66;98120.47;2086046;84;20989;-78
2022/02/19 12:41:27;;;;;;;6.27;2.53;;;;;;;8.06;40.56;98120.00;2084980;84;21005;-80
2022/02/19 12:44:30;;;;;;;9.30;4.83;;;;;;;7.93;40.33;98120.30;2086777;84;21370;-79
2022/02/19 12:47:30;;;;;;;10.93;4.30;;;;;;;7.88;41.17;98134.54;2147978;82;20979;-79
2022/02/19 12:50:30;;;;;;;7.90;3.93;;;;;;;7.88;41.17;98134.54;2147825;83;20975;-79
2022/02/19 12:53:31;;;;;;;9.43;3.60;;;;;;;7.81;41.02;98134.45;2087019;85;21440;-79
2022/02/19 12:56:31;;;;;;;4.37;2.17;;;;;;;7.71;41.52;98154.66;2085392;82;21993;-79
2022/02/19 12:59:32;;;;;;;4.50;3.00;;;;;;;7.60;40.97;98163.19;2086874;84;20939;-80
2022/02/19 13:02:32;;;;;;;9.90;4.77;;;;;;;7.53;41.24;98152.70;2086774;84;20986;-79
2022/02/19 13:05:34;;;;;;;13.50;4.57;;;;;;;7.53;41.90;98145.78;2086289;84;21101;-80
2022/02/19 13:08:34;;;;;;;7.50;3.47;;;;;;;7.57;41.65;98154.05;2086645;84;21017;-79
2022/02/19 13:11:35;;;;;;;11.27;3.10;;;;;;;7.51;42.02;98178.65;2086761;84;21041;-80
2022/02/19 13:14:35;;;;;;;10.67;4.33;;;;;;;7.49;41.67;98187.27;2085795;84;21030;-79
2022/02/19 13:17:36;;;;;;;9.33;3.43;;;;;;;7.45;42.17;98189.38;2084824;84;20994;-79
2022/02/19 13:20:37;;;;;;;9.13;2.90;;;;;;;7.38;42.25;98192.74;2085728;84;20979;-80
2022/02/19 13:23:38;;;;;;;12.13;3.23;;;;;;;7.27;42.68;98199.08;2087346;84;21029;-79
2022/02/19 13:26:38;;;;;;;8.13;3.47;;;;;;;7.14;43.22;98214.02;2087301;84;21373;-79
2022/02/19 13:29:39;;;;;;;8.60;2.47;;;;;;;7.04;43.46;98207.82;2087389;84;21397;-80
2022/02/19 13:32:39;;;;;;;6.67;3.43;;;;;;;6.93;43.56;98219.30;2087432;84;20923;-80
2022/02/19 13:35:40;;;;;;;9.10;4.23;;;;;;;6.86;44.00;98214.86;2087318;84;21010;-79
2022/02/19 13:38:40;;;;;;;11.83;3.87;;;;;;;6.85;44.35;98231.27;2086995;84;20958;-80
2022/02/19 13:41:41;;;;;;;7.37;3.97;;;;;;;6.89;44.35;98233.06;2086855;84;20990;-80
2022/02/19 13:44:41;;;;;;;5.27;2.90;;;;;;;6.90;44.22;98233.94;2086639;85;20930;-80
2022/02/19 13:47:42;;;;;;;8.47;3.57;;;;;;;6.88;43.83;98235.21;2087026;84;21006;-79
2022/02/19 13:50:42;;;;;;;7.53;4.27;;;;;;;6.88;43.98;98248.19;2086712;84;20983;-80
2022/02/19 13:53:43;;;;;;;7.67;4.03;;;;;;;6.88;44.25;98231.32;2087317;84;20954;-80
2022/02/19 13:56:43;;;;;;;7.53;3.43;;;;;;;6.87;44.01;98258.11;2087223;84;21042;-80
2022/02/19 13:59:44;;;;;;;10.43;4.57;;;;;;;6.82;43.49;98255.86;2087296;84;20974;-79
2022/02/19 14:02:44;;;;;;;12.27;4.43;;;;;;;6.78;43.19;98251.47;2087002;84;21073;-79
2022/02/19 14:05:45;;;;;;;7.97;3.87;;;;;;;6.79;43.78;98253.22;2089231;84;21022;-80
2022/02/19 14:08:45;;;;;;;29.63;4.10;;;;;;;6.82;43.51;98262.77;2089604;84;20915;-80
2022/02/19 14:11:45;;;;;;;8.23;3.10;;;;;;;6.82;42.99;98264.94;2087381;84;20962;-81
2022/02/19 14:14:46;;;;;;;5.90;3.57;;;;;;;6.79;43.38;98276.98;2087359;84;20982;-80
2022/02/19 14:17:48;;;;;;;9.70;4.77;;;;;;;6.76;43.90;98282.12;2078864;85;20995;-81
2022/02/19 14:20:49;;;;;;;10.43;4.83;;;;;;;6.72;44.05;98285.08;2087581;84;21362;-81
2022/02/19 14:23:49;;;;;;;12.17;3.50;;;;;;;6.69;43.99;98293.68;2087441;85;21381;-81
2022/02/19 14:26:50;;;;;;;9.17;4.20;;;;;;;6.66;43.62;98294.05;2087479;84;20963;-80
2022/02/19 14:29:50;;;;;;;8.53;3.50;;;;;;;6.63;44.25;98300.05;2087524;84;20930;-82
2022/02/19 14:32:51;;;;;;;6.60;2.80;;;;;;;6.62;43.38;98303.91;2087559;84;20947;-82
2022/02/19 14:35:52;;;;;;;8.53;3.77;;;;;;;6.60;43.73;98305.60;2087633;83;21014;-82
2022/02/19 14:38:52;;;;;;;7.53;3.57;;;;;;;6.57;43.73;98302.53;2087508;84;20943;-82
2022/02/19 14:41:53;;;;;;;12.13;4.70;;;;;;;6.57;43.83;98300.36;2087604;84;20950;-82